Weather observations for the past three days for
Stanton Airfield
Metric (Imperial)
Date Time (cdt) Wind (kph) Vis. (km) Weather Sky Cond. Temperature (ºC) Relative Humidity Wind Chill (°C) Heat Index (°C) Pressure Precipitation (cm)
Air Dwpt 6 hour altimeter (cm) sea level (mb) 1 hr 3 hr 6 hr
Max. Min.
06 00:55 NW 13 16.09 Fair CLR 2.7 -4.7 59% -0 76.05 0.0
06 00:35 NW 11 16.09 Fair CLR 2.4 -4.5 61% -0 76.05 0.0
06 00:15 NW 7 16.09 Fair CLR 3.2 -4.2 59% 2 76.05 0.0
05 23:55 NW 13 16.09 Fair CLR 4 -4.1 56% 1 76.02 0.0
05 23:35 NW 13 16.09 Fair CLR 3 -4.3 59% 0 76 0.0
05 23:15 W 13 16.09 Fair CLR 3.6 -4.5 56% 1 76 0.0
05 22:55 W 13 16.09 Fair CLR 3.5 -4.6 56% 1 76 0.0
05 22:35 NW 11 16.09 Fair CLR 3.6 -4.6 55% 1 75.97 0.0
05 22:15 NW 9 16.09 Fair CLR 4.5 -4.6 52% 3 75.97 0.0
05 21:55 NW 11 16.09 Fair CLR 5.7 -4.8 47% 4 75.97 0.0
05 21:35 NW 15 16.09 Partly Cloudy SCT080 6.5 -5 44% 4 75.95 0.0
05 21:15 NW 19 16.09 Partly Cloudy SCT080 7 -5 43% 4 75.92 0.0
05 21:09 NW 17 16.09 Partly Cloudy SCT080 7 -5 43% 4 75.9 0.0
05 21:04 NW 15 16.09 Partly Cloudy SCT080 7 -5 43% 5 75.9 0.0
05 20:41 NW 19 16.09 Mostly Cloudy BKN080 8 -5 40% 5 75.87 0.0
05 20:23 NW 17 16.09 Overcast OVC080 8 -5 40% 6 75.87 0.0
05 20:03 NW 19 16.09 Mostly Cloudy BKN080 8 -5 40% 5 75.84 0.0
05 19:42 NW 19 16.09 Mostly Cloudy BKN080 8 -6 37% 5 75.84 0.0
05 19:15 NW 17 16.09 Overcast OVC080 9 -5 37% 7 75.82 0.0
05 18:55 NW 22 16.09 Overcast OVC080 9.4 -5.1 36% 7 75.82 0.0
05 18:35 NW 24 G 35 16.09 Overcast SCT070 OVC080 9.6 -5.3 35% 7 75.79 0.0
05 18:15 NW 20 16.09 Overcast SCT070 OVC080 9.6 -5.8 34% 7 75.79 0.0
05 17:55 NW 19 G 33 16.09 Overcast SCT070 OVC080 10 -5.5 33% 8 75.79 0.0
05 17:35 NW 22 G 33 16.09 Overcast SCT065 OVC080 10.7 -5.4 32% 75.79 0.0
05 17:15 NW 28 G 35 16.09 Overcast SCT065 OVC080 10.8 -5.1 33% 75.79 0.0
05 16:55 NW 24 G 35 16.09 Overcast SCT070 OVC080 10.6 -4.6 34% 75.79 0.0
05 16:35 NW 26 G 37 16.09 Mostly Cloudy BKN080 10.2 -4.9 34% 75.79 0.0
05 16:15 NW 30 16.09 Overcast SCT065 OVC080 11.1 -4.3 34% 75.82 0.0
05 15:55 W 28 G 41 16.09 Overcast BKN065 OVC080 10 -5.4 34% 7 75.82 0.0
05 15:35 W 24 G 39 16.09 Overcast SCT065 OVC080 10.4 -4.6 35% 75.82 0.0
05 15:15 W 30 G 41 16.09 Overcast SCT065 SCT080 OVC085 10.5 -4.8 34% 75.84 0.0
05 15:06 W 26 G 37 16.09 Overcast SCT065 OVC080 0 0 0% 75.82 0.0
05 15:03 NW 26 16.09 Mostly Cloudy SCT065 BKN080 10 -5 35% 7 75.82 0.0
05 14:43 W 26 16.09 Overcast SCT065 OVC080 10 -6 32% 7 75.82 0.0
05 14:25 W 26 16.09 Overcast SCT065 OVC080 11 -6 30% 75.84 0.0
05 14:04 W 19 16.09 Mostly Cloudy SCT065 BKN080 10 -6 32% 8 75.84 0.0
05 13:48 NW 20 16.09 Mostly Cloudy SCT065 BKN080 11 -6 30% 75.84 0.0
05 13:31 NW 24 16.09 Overcast SCT065 OVC080 10 -7 30% 7 75.84 0.0
05 12:48 NW 20 16.09 Mostly Cloudy BKN080 9 -6 34% 6 75.84 0.0
05 12:27 NW 19 16.09 Overcast OVC075 0 0 0% 0 0.0
05 12:07 NW 20 16.09 Overcast OVC065 9 -6 34% 6 75.84 0.0
05 11:47 NW 20 16.09 Overcast OVC065 8 -7 34% 5 75.87 0.0
05 11:27 NW 26 16.09 Mostly Cloudy BKN065 9 -6 34% 6 75.84 0.0
05 11:11 NW 26 16.09 Partly Cloudy SCT060 SCT075 9 -7 32% 6 75.84 0.0
05 10:52 NW 13 16.09 Mostly Cloudy BKN060 BKN085 7 -7 37% 5 75.84 0.0
05 10:36 NW 22 16.09 Partly Cloudy SCT060 9 -5 37% 6 75.84 0.0
05 10:09 W 19 16.09 Fair CLR 8 -6 37% 5 75.84 0.0
05 09:54 NW 13 16.09 Partly Cloudy SCT070 8 -6 37% 6 75.84 0.0
05 09:29 W 15 16.09 Fair CLR 7 -5 43% 5 75.82 0.0
05 09:04 NW 15 16.09 Partly Cloudy SCT055 7 -6 39% 5 75.82 0.0
05 08:42 NW 17 16.09 Fair CLR 6 -6 42% 3 75.79 0.0
05 08:22 NW 13 16.09 Fair CLR 6 -5 46% 4 75.79 0.0
05 07:55 NW 9 16.09 Fair CLR 4.9 -3.2 56% 3 75.79 0.0
05 07:35 W 9 16.09 Fair CLR 4.5 -2.1 63% 3 75.77 0.0
05 07:15 W 6 16.09 Fair CLR 3.5 -2.1 67% 75.74 0.0
05 06:55 SW 6 16.09 Fair CLR 1.8 -2.5 5.3 0.3 73% 75.72 0.0
05 06:35 W 6 16.09 Fair CLR 1.6 -2.9 72% 75.69 0.0
05 06:15 W 7 16.09 Fair CLR 1.8 -3.1 70% -0 75.67 0.0
05 05:55 W 6 16.09 Fair CLR 1.2 -3.2 73% 75.64 0.0
05 05:35 NW 7 16.09 Fair CLR 1.1 -3.3 73% -1 75.64 0.0
05 05:15 W 11 16.09 Fair CLR 1.3 -3.1 73% -2 75.64 0.0
05 04:55 W 11 16.09 Fair CLR 1.8 -3 71% -1 75.62 0.0
05 04:35 W 7 16.09 Fair CLR 2.4 -3 68% 1 75.62 0.0
05 04:15 W 7 16.09 Fair CLR 2.6 -3 67% 1 75.59 0.0
05 03:55 W 9 16.09 Fair CLR 2.4 -3 68% 0 75.59 0.0
05 03:35 W 9 16.09 Fair CLR 2 -3 70% -0 75.57 0.0
05 03:15 W 9 16.09 Fair CLR 3.4 -3 63% 1 75.54 0.0
05 02:55 W 9 16.09 Fair CLR 3.7 -3.1 62% 2 75.54 0.0
05 02:35 W 9 16.09 Fair CLR 4 -3.1 60% 2 75.54 0.0
05 02:15 W 9 16.09 Fair CLR 4.1 -3.1 60% 2 75.54 0.0
05 01:55 W 11 16.09 Fair CLR 4.5 -3.2 58% 2 75.54 0.0
05 01:35 W 11 16.09 Fair CLR 4.9 -3.2 56% 3 75.54 0.0
05 01:15 W 11 16.09 Fair CLR 4.7 -3.2 57% 2 75.54 0.0
05 00:55 W 11 16.09 Fair CLR 5.3 -3.5 12 4.9 53% 3 75.54 0.0
05 00:35 W 11 16.09 Fair CLR 5 -3.5 55% 3 75.54 0.0
05 00:15 W 9 16.09 Fair CLR 5.5 -3.6 52% 4 75.54 0.0
04 23:55 W 9 16.09 Fair CLR 6.1 -3.9 49% 4 75.51 0.0
04 23:35 W 7 16.09 Fair CLR 5.7 -3.9 50% 4 75.51 0.0
04 23:15 W 7 16.09 Fair CLR 6 -4.1 49% 5 75.51 0.0
04 22:55 W 7 16.09 Fair CLR 6.1 -4.2 48% 5 75.51 0.0
04 22:35 W 7 16.09 Fair CLR 6.9 -4.6 44% 6 75.51 0.0
04 22:15 W 9 16.09 Fair CLR 7 -4.5 44% 5 75.51 0.0
04 21:55 W 15 16.09 Fair CLR 7.3 -4.5 43% 5 75.51 0.0
04 21:35 NW 22 16.09 Fair CLR 8.1 -4.5 41% 5 75.49 0.0
04 21:15 NW 24 16.09 Partly Cloudy SCT065 8.9 -4.6 38% 6 75.46 0.0
04 20:55 NW 33 G 44 16.09 Partly Cloudy and Breezy SCT065 9.5 -3.7 40% 6 75.44 0.0
04 20:35 NW 26 G 31 16.09 Partly Cloudy SCT065 9.9 -3.6 39% 7 75.39 0.0
04 20:15 NW 30 G 37 16.09 Partly Cloudy SCT065 10.5 -4 36% 75.36 0.0
04 19:55 NW 24 G 37 16.09 Partly Cloudy SCT065 10.7 -3.6 37% 75.34 0.0
04 19:35 NW 33 G 44 16.09 Fair and Breezy CLR 11.1 -3.4 36% 75.31 0.0
04 19:15 NW 37 G 46 16.09 Fair and Breezy CLR 12 -3.9 33% 75.29 0.0
04 18:55 NW 39 G 48 16.09 Fair and Breezy CLR 12 -3 35% 75.29 0.0
04 18:35 NW 30 G 46 16.09 Fair CLR 12.7 -2.8 34% 75.26 0.0
04 18:15 NW 41 G 52 16.09 Fair and Breezy CLR 13.7 -2.7 32% 75.23 0.0
04 17:55 NW 37 G 50 16.09 Partly Cloudy and Breezy SCT070 14 -2.3 33% 75.21 0.0
04 17:35 NW 35 G 57 16.09 Partly Cloudy and Breezy SCT070 14.8 -2 32% 75.18 0.0
04 17:15 NW 35 G 52 16.09 Partly Cloudy and Breezy SCT070 15 -2.1 31% 75.16 0.0
04 16:55 NW 43 G 52 16.09 Partly Cloudy and Windy SCT070 14.9 -1.5 33% 75.11 0.0
04 16:35 NW 35 G 50 16.09 Fair and Breezy CLR 16.4 -1 31% 75.11 0.0
04 16:15 NW 37 G 48 16.09 Partly Cloudy and Breezy SCT070 16.2 -1.6 30% 75.08 0.0
04 15:55 W 37 G 52 16.09 Partly Cloudy and Breezy SCT070 15.9 -1.3 31% 75.08 0.0
04 15:35 W 35 G 50 16.09 Fair and Breezy CLR 16.3 -0.9 31% 75.08 0.0
04 15:15 W 35 G 46 16.09 Partly Cloudy and Breezy SCT080 SCT120 16 -0.7 32% 75.08 0.0
04 14:44 W 41 G 48 16.09 Mostly Cloudy and Breezy SCT070 BKN120 15 -2 31% 75.08 0.0
04 14:05 NW 37 16.09 Fair and Breezy CLR 17 -2 27% 75.03 0.0
04 13:46 W 33 16.09 Fair and Breezy CLR 18 -2 26% 75.01 0.0
04 13:28 W 43 16.09 Fair and Windy CLR 18 -3 24% 74.98 0.0
04 13:02 NW 37 16.09 Fair and Breezy CLR 18 -1 28% 74.93 0.0
04 12:41 W 35 16.09 Fair and Breezy CLR 18 -1 28% 74.93 0.0
04 12:21 NW 28 16.09 Fair CLR 18 1 32% 74.93 0.0
04 12:01 NW 33 16.09 Fair and Breezy CLR 18 0 30% 74.93 0.0
04 11:41 W 31 16.09 Fair CLR 18 0 30% 74.93 0.0
04 11:22 W 30 16.09 Fair CLR 16 0 34% 74.93 0.0
04 11:03 NW 26 16.09 Fair CLR 16 1 36% 74.93 0.0
04 10:43 NW 31 16.09 Fair CLR 16 0 34% 0 0.0
04 10:24 NW 43 16.09 Fair and Windy CLR 17 -1 30% 74.93 0.0
04 10:07 NW 33 16.09 Fair and Breezy CLR 17 1 34% 74.9 0.0
04 09:48 NW 35 16.09 Fair and Breezy CLR 17 0 32% 74.88 0.0
04 09:26 W 33 16.09 Fair and Breezy CLR 17 3 39% 74.88 0.0
04 09:07 W 31 16.09 Fair CLR 17 3 39% 74.85 0.0
04 08:48 W 24 16.09 Fair CLR 16 3 42% 74.85 0.0
04 07:56 W 30 16.09 Fair CLR 16 2 39% 0 0.0
04 07:23 W 24 16.09 Fair CLR 15 2 42% 0 0.0
04 07:02 SW 30 16.09 Partly Cloudy SCT010 14 2 44% 74.78 0.0
04 06:35 SW 28 G 35 16.09 Partly Cloudy SCT110 12.3 1.8 49% 74.78 0.0
04 06:15 SW 22 G 31 16.09 Fair CLR 11.7 1.3 49% 74.75 0.0
04 05:55 SW 24 G 31 16.09 Fair CLR 11.7 1.1 48% 74.78 0.0
04 05:35 SW 20 16.09 Fair CLR 11.3 1.1 50% 74.8 0.0
04 05:15 SW 24 16.09 Fair CLR 11.6 1 48% 74.83 0.0
04 04:55 SW 19 16.09 Fair CLR 11.5 1 49% 74.85 0.0
04 04:35 SW 19 16.09 Fair CLR 11.5 1 49% 74.85 0.0
04 04:15 SW 19 16.09 Fair CLR 11.1 1 50% 74.9 0.0
04 03:55 SW 15 16.09 Fair CLR 10.3 1.1 53% 74.93 0.0
04 03:35 SW 15 16.09 Fair CLR 10.5 1 52% 74.96 0.0
04 03:15 SW 13 16.09 Fair CLR 11.4 0.5 47% 74.96 0.0
04 02:55 SW 15 16.09 Fair CLR 11.4 0.5 47% 74.98 0.0
04 02:35 S 17 16.09 Fair CLR 11.2 0.3 47% 75.01 0.0
04 02:15 SW 15 16.09 Fair CLR 10.4 0.6 51% 75.06 0.0
04 01:55 S 9 16.09 Fair CLR 10.6 0.5 50% 75.06 0.0
04 01:35 S 9 16.09 Fair CLR 9.1 1.1 58% 8 75.08 0.0
04 01:15 S 11 16.09 Fair CLR 8.9 0.9 58% 7 75.13 0.0
04 00:55 S 7 16.09 Fair CLR 8.6 1.1 20.2 8.6 60% 8 75.16 0.0
04 00:35 S 9 16.09 Fair CLR 9.5 1 56% 8 75.16 0.0
04 00:15 S 9 16.09 Fair CLR 9.5 1.1 56% 8 75.21 0.0
03 23:55 SW 9 16.09 Fair CLR 9.6 1.2 56% 9 75.23 0.0
03 23:35 SW 7 16.09 Fair CLR 9.8 1.2 55% 9 75.23 0.0
03 23:15 SW 9 16.09 Fair CLR 10.1 1 54% 75.26 0.0
03 22:55 S 7 16.09 Fair CLR 10.5 1 52% 75.29 0.0
03 22:35 S 7 16.09 Fair CLR 11.6 0.2 46% 75.31 0.0
03 22:15 S 9 16.09 Fair CLR 12.2 0 43% 75.34 0.0
03 21:55 S 9 16.09 Fair CLR 13 -0.2 41% 75.34 0.0
03 21:35 S 9 16.09 Fair CLR 12.9 0.1 42% 75.34 0.0
03 21:15 S 7 16.09 Fair CLR 14.1 -0.5 37% 75.34 0.0
03 20:55 SW 6 16.09 Fair CLR 15.1 -0.6 34% 75.36 0.0
03 20:35 W 6 16.09 Fair CLR 17.7 -2.3 26% 75.36 0.0
03 20:15 W 6 16.09 Fair CLR 17.5 -1.7 27% 75.36 0.0
03 19:55 W 7 16.09 Fair CLR 18.4 -2.1 25% 75.36 0.0
03 19:35 W 11 16.09 Fair CLR 19.3 -2.5 23% 75.36 0.0
03 19:15 W 20 16.09 Fair CLR 19.9 -2.7 22% 75.36 0.0
03 18:55 NW 22 16.09 Fair CLR 20.3 -3.1 21.5 20.1 21% 75.36 0.0
03 18:35 NW 19 16.09 Fair CLR 20.5 -3.2 20% 75.39 0.0
03 18:15 NW 19 G 28 16.09 Fair CLR 20.7 -2.1 22% 75.39 0.0
03 17:55 NW 20 G 31 16.09 Fair CLR 20.8 -1.3 23% 75.39 0.0
03 17:35 NW 20 G 31 16.09 Fair CLR 21 -0.6 24% 75.39 0.0
03 17:15 NW 20 G 26 16.09 Fair CLR 21.1 -1 23% 75.41 0.0
03 16:55 NW 20 G 31 16.09 Fair CLR 21.2 -1.4 22% 75.39 0.0
03 16:35 NW 22 G 31 16.09 Fair CLR 21.1 -2 21% 75.41 0.0
03 16:15 W 24 G 35 16.09 Fair CLR 21.5 -0.9 22% 75.41 0.0
03 15:55 NW 20 G 33 16.09 Fair CLR 21.3 -0.9 23% 75.41 0.0
03 15:35 NW 26 G 39 16.09 Fair CLR 21 0.2 25% 75.44 0.0
03 15:15 NW 22 16.09 Fair CLR 21.1 0.8 26% 75.46 0.0
03 14:55 NW 24 G 41 16.09 Fair CLR 21 0.2 25% 75.46 0.0
03 14:35 NW 13 G 30 16.09 Fair CLR 20.7 0.9 27% 75.46 0.0
03 14:15 N 28 G 37 16.09 Fair CLR 20.7 1.5 28% 75.46 0.0
03 13:55 NW 20 G 37 16.09 Fair CLR 21 2.8 30% 75.46 0.0
03 13:35 NW 28 G 41 16.09 Fair CLR 20.5 3 32% 75.49 0.0
03 13:15 NW 30 G 37 16.09 Fair CLR 20.4 1.9 29% 75.49 0.0
03 12:55 NW 28 G 43 16.09 Fair CLR 20.2 1 20.4 11.9 28% 75.51 0.0
03 12:35 NW 22 G 37 16.09 Fair CLR 20 0.6 27% 75.51 0.0
03 12:15 N 22 G 35 16.09 Fair CLR 19.7 1.7 30% 75.51 0.0
03 11:55 NW 24 G 31 16.09 Fair CLR 19.6 2.6 32% 75.51 0.0
03 11:35 NW 22 16.09 Fair CLR 19.1 2.2 33% 75.51 0.0
03 11:15 N 19 G 39 16.09 Fair CLR 18.9 3.1 35% 75.51 0.0
03 10:55 N 22 16.09 Fair CLR 18.5 3 36% 75.51 0.0
03 10:35 Calm 16.09 Fair CLR 17.7 2.6 37% 75.49 0.0
03 10:15 N 22 16.09 Fair CLR 17 3.1 40% 75.49 0.0
03 09:55 N 20 G 28 16.09 Fair CLR 16.1 2.9 41% 75.49 0.0
03 09:35 NW 15 G 28 16.09 Fair CLR 15.5 2.5 42% 75.46 0.0
03 09:15 NW 15 16.09 Fair CLR 15.1 2.4 43% 75.46 0.0
03 08:55 W 13 16.09 Fair CLR 14.4 2.4 45% 75.46 0.0
03 08:35 W 15 16.09 Fair CLR 14.1 2.1 45% 75.44 0.0
03 08:15 SW 15 16.09 Fair CLR 13.5 1.7 45% 75.44 0.0
03 07:55 SW 15 16.09 Fair CLR 13 1.4 45% 75.44 0.0
03 07:35 SW 13 16.09 Fair CLR 12.4 1.4 47% 75.41 0.0
03 07:15 SW 19 16.09 Fair CLR 11.9 1.1 48% 75.41 0.0
03 06:55 SW 15 16.09 Fair CLR 11.7 0.5 15.3 10.7 46% 75.39 0.0
03 06:35 SW 17 16.09 Fair CLR 11.3 0.5 48% 75.39 0.0
03 06:15 SW 15 16.09 Fair CLR 10.8 1.1 51% 75.36 0.0
03 05:55 S 13 16.09 Fair CLR 11.1 1.3 51% 75.36 0.0
03 05:35 S 11 16.09 Fair CLR 11.3 1.4 51% 75.39 0.0
03 05:15 S 9 16.09 Fair CLR 11.3 1.6 52% 75.41 0.0
03 04:55 Calm 16.09 Fair CLR 10.9 1 51% 75.41 0.0
03 04:35 S 11 16.09 Fair CLR 12 0.5 46% 75.41 0.0
03 04:15 S 20 G 30 16.09 Partly Cloudy SCT110 12.5 0.1 43% 75.41 0.0
03 03:55 S 19 16.09 Fair CLR 12.5 0 43% 75.41 0.0
03 03:35 S 19 G 28 16.09 Fair CLR 13.1 0 41% 75.44 0.0
03 03:15 S 20 G 28 16.09 Partly Cloudy SCT095 14.1 0 38% 75.46 0.0
03 02:55 S 26 G 33 16.09 Mostly Cloudy BKN095 14.5 0.1 38% 75.49 0.0
03 02:35 S 11 16.09 Mostly Cloudy BKN095 14.1 1.6 43% 75.54 0.0
03 02:15 SW 20 G 50 16.09 Overcast SCT075 OVC095 14 3.1 48% 75.54 0.0
03 01:55 SW 39 G 48 16.09 Overcast and Breezy OVC100 15.2 2.5 43% 75.57 0.0
03 01:35 SW 7 16.09 Mostly Cloudy BKN120 12.1 1.9 50% 75.64 0.0
03 01:15 SW 11 16.09 Partly Cloudy SCT085 SCT120 10.9 2.5 56% 75.67 0.0
Date Time (cdt) Wind (kph) Vis. (km) Weather Sky Cond. Air Dwpt Max. Min. Relative Humidity Wind Chill (°C) Heat Index (°C) altimeter (cm) sea level (mb) 1 hr 3 hr 6 hr
6 hour
Temperature (ºC) Pressure Precipitation (cm)